Time;durP1;ratioP1;P1;durP2;ratioP2;P2;SDS_P1;SDS_P2;PMS_P1;PMS_P2;Temp;Humidity;BMP_temperature;BMP_pressure;BME280_temperature;BME280_humidity;BME280_pressure;Samples;Min_cycle;Max_cycle;Signal;HPM_P1;HPM_P2
2022/04/06 00:01:39;;;;;;;1.73;1.40;;;18.30;54.20;;;;;;5076653;28;20173;-92
2022/04/06 00:04:04;;;;;;;1.73;1.43;;;18.20;54.20;;;;;;5074934;28;20168;-92
2022/04/06 00:06:30;;;;;;;2.30;1.40;;;18.20;54.20;;;;;;5074251;28;20546;-92
2022/04/06 00:08:56;;;;;;;2.40;1.40;;;18.20;54.20;;;;;;5075424;28;20190;-93
2022/04/06 00:11:23;;;;;;;2.00;1.40;;;18.20;54.30;;;;;;5075948;28;20186;-93
2022/04/06 00:13:49;;;;;;;1.90;1.50;;;18.20;54.30;;;;;;5075474;28;20174;-93
2022/04/06 00:16:15;;;;;;;2.10;1.40;;;18.20;54.30;;;;;;5075535;28;20488;-92
2022/04/06 00:18:41;;;;;;;2.33;1.60;;;18.10;54.30;;;;;;5075180;28;20177;-93
2022/04/06 00:21:07;;;;;;;2.13;1.50;;;18.20;54.40;;;;;;5075293;28;20185;-92
2022/04/06 00:23:33;;;;;;;1.70;1.40;;;18.10;54.40;;;;;;5075403;28;20172;-92
2022/04/06 00:25:58;;;;;;;2.70;1.60;;;18.20;54.40;;;;;;5073281;28;20175;-92
2022/04/06 00:28:24;;;;;;;3.93;1.40;;;18.10;54.40;;;;;;5073805;28;20185;-93
2022/04/06 00:30:50;;;;;;;2.20;1.43;;;18.10;54.40;;;;;;5073611;28;20245;-93
2022/04/06 00:33:16;;;;;;;2.07;1.63;;;18.10;54.50;;;;;;5074482;28;20594;-92
2022/04/06 00:35:42;;;;;;;2.43;1.60;;;18.10;54.50;;;;;;5075229;28;20465;-92
2022/04/06 00:38:09;;;;;;;2.03;1.50;;;18.10;54.50;;;;;;5074854;28;20543;-92
2022/04/06 00:40:36;;;;;;;1.63;1.40;;;18.10;54.60;;;;;;5074221;28;20171;-92
2022/04/06 00:43:07;;;;;;;1.87;1.33;;;18.10;54.60;;;;;;5073037;28;20167;-92
2022/04/06 00:45:33;;;;;;;1.33;1.20;;;18.10;54.60;;;;;;5073960;28;20516;-93
2022/04/06 00:47:59;;;;;;;3.30;1.50;;;18.00;54.60;;;;;;5073685;28;20609;-93
2022/04/06 00:50:25;;;;;;;2.00;1.23;;;18.00;54.60;;;;;;5072942;28;20215;-91
2022/04/06 00:52:57;;;;;;;2.03;1.57;;;18.00;54.60;;;;;;5073507;28;20557;-92
2022/04/06 00:55:29;;;;;;;1.87;1.27;;;18.00;54.70;;;;;;5071901;28;20182;-92
2022/04/06 00:57:56;;;;;;;3.47;1.63;;;18.00;54.70;;;;;;5074433;28;20179;-92
2022/04/06 01:00:22;;;;;;;2.30;1.47;;;18.00;54.70;;;;;;5074370;28;20166;-92
2022/04/06 01:02:48;;;;;;;1.93;1.50;;;18.00;54.70;;;;;;5073622;28;20183;-92
2022/04/06 01:05:14;;;;;;;2.57;1.63;;;18.00;54.70;;;;;;5073438;28;20173;-92
2022/04/06 01:07:42;;;;;;;1.80;1.60;;;18.00;54.80;;;;;;5072515;28;20472;-92
2022/04/06 01:10:08;;;;;;;2.30;1.40;;;18.00;54.80;;;;;;5073643;28;20174;-93
2022/04/06 01:12:38;;;;;;;2.67;1.90;;;17.90;54.80;;;;;;5073381;28;20175;-92
2022/04/06 01:15:05;;;;;;;1.73;1.50;;;17.90;54.80;;;;;;5072451;28;20174;-92
2022/04/06 01:17:35;;;;;;;2.30;1.70;;;17.90;54.90;;;;;;5267764;22;20233;-92
2022/04/06 01:20:02;;;;;;;2.13;1.43;;;17.90;54.80;;;;;;5053488;28;20573;-93
2022/04/06 01:22:28;;;;;;;2.23;1.60;;;17.90;54.80;;;;;;5054045;28;20299;-94
2022/04/06 01:24:54;;;;;;;1.40;1.30;;;17.90;54.90;;;;;;5054647;28;20464;-93
2022/04/06 01:27:20;;;;;;;2.03;1.30;;;17.90;54.80;;;;;;5055051;28;20182;-93
2022/04/06 01:29:46;;;;;;;2.07;1.50;;;17.90;54.90;;;;;;5055008;28;20169;-93
2022/04/06 01:32:23;;;;;;;2.23;1.43;;;17.90;54.90;;;;;;5054910;28;20580;-93
2022/04/06 01:34:51;;;;;;;2.23;1.67;;;17.90;54.90;;;;;;5053514;28;20591;-93
2022/04/06 01:37:17;;;;;;;1.90;1.40;;;17.90;55.00;;;;;;5053221;28;20582;-92
2022/04/06 01:39:45;;;;;;;2.03;1.50;;;17.90;55.00;;;;;;5053876;28;20271;-93
2022/04/06 01:42:15;;;;;;;2.07;1.40;;;17.80;55.00;;;;;;5056000;28;20174;-93
2022/04/06 01:44:44;;;;;;;2.33;1.63;;;17.80;54.90;;;;;;5053716;28;20176;-93
2022/04/06 01:47:10;;;;;;;3.60;1.40;;;17.80;55.00;;;;;;5055038;28;20183;-93
2022/04/06 01:52:21;;;;;;;2.37;1.57;;;17.80;55.00;;;;;;5056001;28;20182;-93
2022/04/06 01:54:51;;;;;;;1.67;1.10;;;17.80;55.00;;;;;;5055460;28;20185;-93
2022/04/06 01:57:17;;;;;;;2.67;1.47;;;17.80;55.10;;;;;;5054308;28;20484;-94
2022/04/06 01:59:46;;;;;;;1.60;1.37;;;17.80;55.10;;;;;;5055380;28;20176;-92
2022/04/06 02:02:14;;;;;;;1.87;1.50;;;17.80;55.10;;;;;;5052394;28;20178;-93
2022/04/06 02:04:41;;;;;;;1.50;1.30;;;17.80;55.10;;;;;;5054325;28;20180;-93
2022/04/06 02:07:13;;;;;;;1.63;1.20;;;17.70;55.10;;;;;;5053200;28;20279;-93
2022/04/06 02:09:47;;;;;;;2.37;1.37;;;17.70;55.10;;;;;;5053356;28;20178;-93
2022/04/06 02:12:13;;;;;;;1.33;1.20;;;17.70;55.10;;;;;;5052577;28;20173;-93
2022/04/06 02:14:42;;;;;;;1.80;1.43;;;17.70;55.10;;;;;;5054667;28;20243;-93
2022/04/06 02:17:09;;;;;;;2.00;1.33;;;17.70;55.10;;;;;;5053480;28;20238;-93
2022/04/06 02:19:39;;;;;;;3.40;1.70;;;17.70;55.20;;;;;;5054275;28;20195;-93
2022/04/06 02:22:06;;;;;;;2.10;1.53;;;17.70;55.20;;;;;;5054890;28;20193;-91
2022/04/06 02:24:33;;;;;;;1.97;1.30;;;17.70;55.20;;;;;;5053237;28;20224;-91
2022/04/06 02:26:59;;;;;;;2.77;1.47;;;17.70;55.20;;;;;;5053242;28;20211;-91
2022/04/06 02:29:25;;;;;;;2.60;1.53;;;17.70;55.30;;;;;;5053940;28;20205;-92
2022/04/06 02:31:52;;;;;;;1.53;1.40;;;17.70;55.20;;;;;;5053842;28;20174;-92
2022/04/06 02:34:18;;;;;;;2.70;1.50;;;17.70;55.30;;;;;;5053287;28;20234;-91
2022/04/06 02:36:44;;;;;;;2.87;1.43;;;17.70;55.20;;;;;;5053898;28;20288;-91
2022/04/06 02:39:10;;;;;;;3.70;1.60;;;17.60;55.30;;;;;;5054394;28;20174;-91
2022/04/06 02:41:36;;;;;;;2.03;1.50;;;17.60;55.30;;;;;;5053147;28;20175;-91
2022/04/06 02:44:01;;;;;;;1.90;1.50;;;17.60;55.30;;;;;;5053344;28;20265;-91
2022/04/06 02:46:27;;;;;;;1.97;1.50;;;17.60;55.40;;;;;;5053817;28;20184;-91
2022/04/06 02:48:53;;;;;;;3.13;1.50;;;17.60;55.40;;;;;;5053241;28;20179;-91
2022/04/06 02:51:19;;;;;;;2.23;1.40;;;17.60;55.40;;;;;;5054221;28;20183;-91
2022/04/06 02:53:44;;;;;;;4.17;1.53;;;17.60;55.40;;;;;;5053015;28;20223;-90
2022/04/06 02:56:10;;;;;;;2.63;1.50;;;17.60;55.50;;;;;;5055172;28;20207;-92
2022/04/06 02:58:36;;;;;;;2.30;1.50;;;17.50;55.50;;;;;;5057110;28;20169;-91
2022/04/06 03:01:02;;;;;;;1.43;1.20;;;17.50;55.60;;;;;;5056242;28;20175;-91
2022/04/06 03:03:27;;;;;;;2.43;1.40;;;17.50;55.70;;;;;;5057215;28;20180;-91
2022/04/06 03:05:53;;;;;;;1.90;1.00;;;17.80;55.60;;;;;;5056857;28;20532;-91
2022/04/06 03:08:19;;;;;;;1.53;1.13;;;20.00;52.20;;;;;;5057344;28;20184;-91
2022/04/06 03:10:45;;;;;;;1.20;1.10;;;21.10;48.90;;;;;;5056892;28;20463;-92
2022/04/06 03:13:11;;;;;;;1.20;1.10;;;21.30;48.10;;;;;;5055104;28;20178;-92
2022/04/06 03:15:36;;;;;;;1.57;1.20;;;21.60;47.70;;;;;;5056200;28;20211;-91
2022/04/06 03:18:04;;;;;;;2.13;1.10;;;21.90;47.20;;;;;;5056486;28;20252;-91
2022/04/06 03:20:30;;;;;;;1.50;1.10;;;22.40;46.60;;;;;;5056487;28;20558;-91
2022/04/06 03:22:56;;;;;;;1.20;1.00;;;22.90;45.90;;;;;;5055654;28;20221;-91
2022/04/06 03:25:21;;;;;;;2.50;1.27;;;23.10;45.40;;;;;;5056304;28;20237;-91
2022/04/06 03:27:47;;;;;;;2.37;1.60;;;23.30;45.10;;;;;;5056432;28;20172;-91
2022/04/06 03:30:13;;;;;;;2.27;1.40;;;23.30;44.90;;;;;;5057129;28;20259;-92
2022/04/06 03:32:40;;;;;;;1.30;1.20;;;23.30;45.40;;;;;;5056782;28;20321;-92
2022/04/06 03:35:06;;;;;;;1.90;1.30;;;23.30;45.00;;;;;;5055928;28;20168;-92
2022/04/06 03:37:32;;;;;;;1.60;1.30;;;23.10;45.10;;;;;;5056001;28;20207;-92
2022/04/06 03:39:58;;;;;;;1.93;1.20;;;23.00;45.20;;;;;;5056362;28;20165;-92
2022/04/06 03:42:24;;;;;;;1.63;1.00;;;23.00;45.30;;;;;;5055693;28;20231;-92
2022/04/06 03:44:50;;;;;;;2.03;1.20;;;22.70;45.50;;;;;;5056205;28;20169;-92
2022/04/06 03:47:16;;;;;;;2.07;1.37;;;22.60;45.70;;;;;;5055918;28;20326;-92
2022/04/06 03:49:42;;;;;;;1.37;1.20;;;22.30;45.90;;;;;;5055064;28;20180;-92
2022/04/06 03:52:08;;;;;;;2.43;1.30;;;22.10;46.20;;;;;;5055317;28;20225;-92
2022/04/06 03:54:34;;;;;;;1.60;1.27;;;22.00;46.40;;;;;;5053478;28;20296;-92
2022/04/06 03:57:00;;;;;;;2.00;1.30;;;21.80;46.60;;;;;;5056141;28;20334;-92
2022/04/06 03:59:26;;;;;;;2.67;1.37;;;21.70;46.80;;;;;;5053756;28;20271;-92
2022/04/06 04:01:52;;;;;;;2.10;1.07;;;21.50;47.10;;;;;;5054625;28;20242;-92
2022/04/06 04:04:18;;;;;;;1.57;1.20;;;21.30;47.20;;;;;;5056097;28;20484;-93
2022/04/06 04:06:44;;;;;;;2.30;1.20;;;21.20;47.50;;;;;;5055313;28;20188;-92
2022/04/06 04:09:10;;;;;;;1.30;1.00;;;21.00;47.70;;;;;;5056101;28;20210;-93
2022/04/06 04:11:35;;;;;;;2.27;1.30;;;20.80;47.90;;;;;;5055519;28;20179;-93
2022/04/06 04:14:01;;;;;;;3.07;1.30;;;20.70;48.20;;;;;;5056782;28;20189;-93
2022/04/06 04:16:27;;;;;;;1.77;1.20;;;20.50;48.50;;;;;;5056297;28;20291;-93
2022/04/06 04:18:52;;;;;;;1.60;1.13;;;20.30;48.90;;;;;;5055830;28;20244;-93
2022/04/06 04:21:33;;;;;;;2.27;1.20;;;20.10;49.20;;;;;;5056548;28;20186;-93
2022/04/06 04:24:04;;;;;;;1.93;1.30;;;19.90;49.40;;;;;;5056079;28;20311;-92
2022/04/06 04:26:31;;;;;;;1.37;1.10;;;19.80;49.80;;;;;;5055186;28;20177;-93
2022/04/06 04:28:57;;;;;;;2.10;1.20;;;19.70;50.10;;;;;;5054676;28;20182;-93
2022/04/06 04:31:23;;;;;;;1.77;1.00;;;19.60;50.30;;;;;;5052919;28;20271;-93
2022/04/06 04:33:49;;;;;;;1.80;1.23;;;19.40;50.50;;;;;;5054614;28;20340;-92
2022/04/06 04:36:16;;;;;;;1.87;1.10;;;19.30;50.70;;;;;;5054449;28;20592;-91
2022/04/06 04:38:42;;;;;;;1.90;1.20;;;19.20;50.90;;;;;;5053052;28;20624;-91
2022/04/06 04:41:09;;;;;;;1.70;1.40;;;19.10;51.10;;;;;;5052759;28;20336;-91
2022/04/06 04:43:36;;;;;;;1.83;1.20;;;19.00;51.30;;;;;;5052727;28;20299;-91
2022/04/06 04:46:03;;;;;;;2.27;1.20;;;19.00;51.50;;;;;;5052396;28;20168;-91
2022/04/06 04:48:29;;;;;;;1.87;1.43;;;18.90;51.70;;;;;;5051709;28;20188;-91
2022/04/06 04:50:54;;;;;;;2.20;1.00;;;18.80;51.80;;;;;;5052639;28;20172;-92
2022/04/06 04:53:20;;;;;;;2.50;1.20;;;18.70;51.90;;;;;;5052006;28;20617;-92
2022/04/06 04:55:46;;;;;;;2.13;1.40;;;18.70;52.10;;;;;;5052541;28;20228;-92
2022/04/06 04:58:12;;;;;;;1.20;1.10;;;18.70;52.20;;;;;;5051353;28;20186;-92
2022/04/06 05:00:38;;;;;;;1.70;1.00;;;18.80;52.20;;;;;;5052308;28;20257;-92
2022/04/06 05:03:05;;;;;;;1.93;1.10;;;18.90;51.80;;;;;;5049827;28;20178;-91
2022/04/06 05:05:31;;;;;;;2.10;1.40;;;19.20;51.50;;;;;;5050899;28;20161;-91
2022/04/06 05:07:59;;;;;;;2.20;1.13;;;19.50;50.90;;;;;;5051493;28;20469;-91
2022/04/06 05:10:26;;;;;;;2.57;1.13;;;19.60;50.50;;;;;;5051141;28;20495;-91
2022/04/06 05:12:52;;;;;;;1.77;1.10;;;19.90;50.10;;;;;;5050310;28;20186;-91
2022/04/06 05:15:18;;;;;;;2.93;1.43;;;20.00;49.70;;;;;;5049909;28;20174;-91
2022/04/06 05:17:45;;;;;;;2.03;1.30;;;20.20;49.30;;;;;;5048707;28;20515;-91
2022/04/06 05:20:11;;;;;;;1.50;1.10;;;20.40;48.90;;;;;;5049314;28;20180;-91
2022/04/06 05:22:37;;;;;;;2.13;1.23;;;20.70;48.40;;;;;;5049119;28;20167;-91
2022/04/06 05:25:04;;;;;;;1.63;1.10;;;20.90;48.10;;;;;;5050807;28;20168;-92
2022/04/06 05:27:31;;;;;;;2.40;1.10;;;20.90;47.80;;;;;;5050121;28;20519;-92
2022/04/06 05:29:57;;;;;;;1.87;1.20;;;21.10;47.60;;;;;;5049061;28;20177;-92
2022/04/06 05:32:23;;;;;;;2.20;1.20;;;21.20;47.50;;;;;;5049587;28;20178;-92
2022/04/06 05:34:49;;;;;;;1.70;1.30;;;21.20;47.30;;;;;;5048506;28;20175;-91
2022/04/06 05:37:15;;;;;;;1.90;1.10;;;21.20;47.40;;;;;;5049098;28;20344;-93
2022/04/06 05:39:40;;;;;;;1.63;1.00;;;21.00;47.50;;;;;;5047872;28;20171;-93
2022/04/06 05:42:06;;;;;;;1.60;0.93;;;20.80;47.70;;;;;;5048446;28;20169;-93
2022/04/06 05:44:34;;;;;;;1.60;1.03;;;20.60;47.90;;;;;;5047505;28;20251;-92
2022/04/06 05:47:02;;;;;;;1.37;1.10;;;20.50;48.20;;;;;;5047189;28;20195;-93
2022/04/06 05:49:28;;;;;;;1.20;1.10;;;20.30;48.40;;;;;;5048801;28;20227;-93
2022/04/06 05:51:53;;;;;;;1.80;1.20;;;20.10;48.60;;;;;;5049738;28;20176;-93
2022/04/06 05:54:19;;;;;;;4.10;1.33;;;19.90;48.90;;;;;;5049222;28;20177;-93
2022/04/06 05:56:45;;;;;;;1.40;1.07;;;19.80;49.20;;;;;;5049759;28;20315;-93
2022/04/06 05:59:11;;;;;;;1.50;1.03;;;19.60;49.50;;;;;;5050096;28;20206;-93
2022/04/06 06:01:36;;;;;;;1.53;1.10;;;19.50;49.70;;;;;;5047890;28;20169;-92
2022/04/06 06:04:02;;;;;;;2.70;1.30;;;19.40;50.00;;;;;;5048244;28;20717;-92
2022/04/06 06:06:28;;;;;;;1.77;1.07;;;19.30;50.30;;;;;;5048305;28;20441;-93
2022/04/06 06:08:54;;;;;;;1.20;1.03;;;19.10;50.40;;;;;;5047670;28;20171;-91
2022/04/06 06:11:19;;;;;;;2.90;1.20;;;19.00;50.70;;;;;;5047753;28;20671;-92
2022/04/06 06:13:45;;;;;;;2.37;1.40;;;18.90;50.90;;;;;;5046391;28;20633;-91
2022/04/06 06:16:11;;;;;;;2.37;1.20;;;18.90;51.10;;;;;;5045270;28;20576;-92
2022/04/06 06:18:37;;;;;;;2.53;1.10;;;18.80;51.20;;;;;;5044977;28;20211;-92
2022/04/06 06:21:04;;;;;;;1.37;1.00;;;18.70;51.30;;;;;;5045564;28;20405;-92
2022/04/06 06:23:29;;;;;;;1.67;1.10;;;18.60;51.50;;;;;;5046500;28;20190;-91
2022/04/06 06:25:55;;;;;;;1.70;1.13;;;18.60;52.00;;;;;;5045390;28;20184;-91
2022/04/06 06:28:21;;;;;;;2.27;1.20;;;18.50;51.70;;;;;;5046834;28;20304;-92
2022/04/06 06:30:46;;;;;;;1.83;1.10;;;18.50;51.90;;;;;;5052918;28;20172;-93
2022/04/06 06:33:13;;;;;;;1.10;0.90;;;18.40;51.90;;;;;;5053854;28;20366;-92
2022/04/06 06:35:39;;;;;;;1.93;1.10;;;18.40;52.00;;;;;;5052876;28;20489;-92
2022/04/06 06:38:05;;;;;;;1.30;1.10;;;18.50;52.10;;;;;;5052453;28;20172;-92
2022/04/06 06:40:31;;;;;;;2.37;1.20;;;18.50;51.90;;;;;;5053804;28;20309;-92
2022/04/06 06:42:56;;;;;;;1.40;1.00;;;18.70;51.70;;;;;;5054388;28;20240;-92
2022/04/06 06:45:22;;;;;;;6.27;1.43;;;18.90;51.30;;;;;;5053888;28;20561;-91
2022/04/06 06:47:48;;;;;;;2.90;1.20;;;19.10;50.80;;;;;;5053402;28;20166;-92
2022/04/06 06:50:16;;;;;;;1.33;0.83;;;19.40;50.30;;;;;;5052838;28;20178;-91
2022/04/06 06:52:42;;;;;;;2.80;1.27;;;19.60;50.00;;;;;;5052479;28;20194;-91
2022/04/06 06:55:08;;;;;;;1.53;1.07;;;19.80;49.60;;;;;;5052316;28;20171;-92
2022/04/06 06:57:34;;;;;;;1.43;1.00;;;20.00;49.10;;;;;;5053587;28;20296;-91
2022/04/06 07:00:01;;;;;;;1.47;1.10;;;20.30;48.60;;;;;;5054446;28;20419;-92
2022/04/06 07:02:26;;;;;;;1.53;1.00;;;20.50;48.20;;;;;;5053741;28;20559;-91
2022/04/06 07:04:52;;;;;;;1.73;1.10;;;20.80;47.80;;;;;;5052308;28;20171;-91
2022/04/06 07:07:18;;;;;;;1.37;0.93;;;21.20;47.40;;;;;;5053883;28;20183;-91
2022/04/06 07:09:43;;;;;;;1.37;0.90;;;21.50;47.00;;;;;;5053084;28;20414;-92
2022/04/06 07:12:10;;;;;;;3.23;1.20;;;21.60;46.90;;;;;;5053300;28;20245;-92
2022/04/06 07:14:37;;;;;;;2.10;1.30;;;21.60;46.70;;;;;;5052184;28;20480;-92
2022/04/06 07:17:03;;;;;;;2.60;1.10;;;21.50;46.90;;;;;;5055661;28;20214;-93
2022/04/06 07:19:29;;;;;;;1.57;0.93;;;21.50;47.00;;;;;;5055413;28;20608;-93
2022/04/06 07:21:55;;;;;;;2.03;1.07;;;21.20;47.30;;;;;;5055213;28;20548;-93
2022/04/06 07:24:21;;;;;;;2.60;1.10;;;21.00;47.70;;;;;;5056431;28;20173;-93
2022/04/06 07:26:46;;;;;;;2.57;1.03;;;20.80;48.00;;;;;;5055596;28;20192;-93
2022/04/06 07:29:15;;;;;;;2.77;1.13;;;20.60;48.30;;;;;;5055898;28;20183;-92
2022/04/06 07:31:42;;;;;;;2.63;1.10;;;20.40;48.60;;;;;;5057290;28;20200;-94
2022/04/06 07:34:09;;;;;;;2.30;1.10;;;20.10;49.10;;;;;;5055635;28;20201;-93
2022/04/06 07:36:35;;;;;;;2.90;1.20;;;20.00;49.50;;;;;;5056454;28;20217;-93
2022/04/06 07:39:02;;;;;;;2.23;1.10;;;19.70;49.80;;;;;;5055527;28;20240;-94
2022/04/06 07:41:29;;;;;;;2.77;1.30;;;19.60;50.20;;;;;;5053340;28;20172;-93
2022/04/06 07:43:55;;;;;;;2.60;1.30;;;19.40;50.60;;;;;;5052160;28;20172;-93
2022/04/06 07:46:21;;;;;;;2.23;1.10;;;19.20;50.80;;;;;;5052656;28;20573;-93
2022/04/06 07:48:47;;;;;;;1.50;1.07;;;19.10;51.10;;;;;;5052242;28;20323;-94
2022/04/06 07:51:13;;;;;;;1.73;1.10;;;19.00;51.40;;;;;;5049816;28;20481;-91
2022/04/06 07:53:39;;;;;;;2.20;1.23;;;18.90;51.70;;;;;;5049458;28;20171;-91
2022/04/06 07:56:06;;;;;;;2.77;1.30;;;18.80;51.80;;;;;;5048267;28;20485;-93
2022/04/06 07:58:32;;;;;;;1.67;1.00;;;18.70;52.00;;;;;;5048901;28;20180;-91
2022/04/06 08:00:58;;;;;;;2.43;1.23;;;18.70;52.20;;;;;;5049368;28;20191;-92
2022/04/06 08:03:24;;;;;;;3.37;1.13;;;18.70;52.30;;;;;;5047851;28;20169;-92
2022/04/06 08:05:50;;;;;;;4.10;1.30;;;18.70;52.40;;;;;;5050155;28;20476;-92
2022/04/06 08:08:16;;;;;;;2.17;1.23;;;18.70;52.50;;;;;;5051183;28;20234;-91
2022/04/06 08:10:42;;;;;;;2.90;1.50;;;18.90;52.20;;;;;;5056022;28;20549;-91
2022/04/06 08:13:08;;;;;;;2.30;1.30;;;19.10;51.80;;;;;;5055764;28;20601;-92
2022/04/06 08:15:34;;;;;;;2.67;1.23;;;19.20;51.60;;;;;;5052777;28;20561;-91
2022/04/06 08:18:00;;;;;;;5.33;1.30;;;19.30;51.50;;;;;;5049704;28;20369;-91
2022/04/06 08:20:26;;;;;;;4.70;1.40;;;19.50;51.10;;;;;;5050554;28;20253;-91
2022/04/06 08:22:52;;;;;;;10.43;1.57;;;19.80;50.70;;;;;;5053101;28;20179;-93
2022/04/06 08:25:18;;;;;;;3.70;1.30;;;19.90;50.60;;;;;;5056502;28;20171;-93
2022/04/06 08:27:44;;;;;;;5.23;1.83;;;19.80;50.40;;;;;;5053567;28;20185;-93
2022/04/06 08:30:12;;;;;;;5.50;1.60;;;19.70;50.50;;;;;;5053184;28;20176;-93
2022/04/06 08:32:40;;;;;;;5.67;1.70;;;19.60;50.70;;;;;;5055567;28;20183;-93
2022/04/06 08:35:08;;;;;;;4.90;1.70;;;19.50;50.90;;;;;;5057172;28;20176;-94
2022/04/06 08:37:34;;;;;;;4.03;1.70;;;19.30;51.00;;;;;;5053194;28;20218;-93
2022/04/06 08:40:00;;;;;;;4.13;1.70;;;19.20;51.30;;;;;;5055533;28;20170;-93
2022/04/06 08:42:32;;;;;;;4.80;1.53;;;19.10;51.50;;;;;;5055822;28;20173;-94
2022/04/06 08:45:00;;;;;;;4.03;1.77;;;19.00;51.70;;;;;;5053095;28;20170;-93
2022/04/06 08:47:28;;;;;;;5.27;1.67;;;18.90;51.90;;;;;;5052610;28;20180;-93
2022/04/06 08:49:55;;;;;;;4.07;1.70;;;18.90;52.00;;;;;;5054153;28;20177;-93
2022/04/06 08:52:22;;;;;;;3.63;1.50;;;18.80;52.20;;;;;;5052314;28;20176;-94
2022/04/06 08:54:48;;;;;;;4.67;1.50;;;18.70;52.30;;;;;;5050946;28;20178;-93
2022/04/06 08:57:14;;;;;;;6.07;1.67;;;18.70;52.40;;;;;;5055488;28;20202;-93
2022/04/06 08:59:40;;;;;;;7.43;1.90;;;18.60;52.50;;;;;;5051234;28;20176;-94
2022/04/06 09:02:07;;;;;;;2.80;1.63;;;18.60;52.60;;;;;;5051042;28;20175;-94
2022/04/06 09:04:35;;;;;;;3.80;1.53;;;18.60;52.70;;;;;;5050792;28;20180;-93
2022/04/06 09:07:10;;;;;;;2.37;1.40;;;18.50;52.80;;;;;;5057201;28;20441;-93
2022/04/06 09:09:36;;;;;;;2.30;1.40;;;18.50;52.90;;;;;;5059492;28;20423;-93
2022/04/06 09:12:08;;;;;;;5.53;1.93;;;18.50;53.50;;;;;;5051405;28;20199;-94
2022/04/06 09:14:34;;;;;;;4.87;1.53;;;18.50;53.10;;;;;;5052094;28;20178;-93
2022/04/06 09:17:05;;;;;;;3.80;1.67;;;18.40;53.10;;;;;;5052482;28;20519;-93
2022/04/06 09:19:31;;;;;;;6.57;1.60;;;18.40;53.10;;;;;;5053520;28;20527;-93
2022/04/06 09:21:57;;;;;;;7.17;1.30;;;18.40;53.20;;;;;;5051196;28;20164;-93
2022/04/06 09:24:26;;;;;;;3.60;1.40;;;18.40;53.10;;;;;;5052440;28;20172;-93
2022/04/06 09:26:57;;;;;;;4.30;1.40;;;18.40;53.50;;;;;;5054009;28;20705;-93
2022/04/06 09:29:24;;;;;;;6.03;1.50;;;18.40;53.10;;;;;;5052715;28;20582;-92
2022/04/06 09:31:50;;;;;;;3.60;1.40;;;18.40;53.10;;;;;;5049953;28;20183;-92
2022/04/06 09:34:19;;;;;;;6.20;1.40;;;18.40;53.20;;;;;;5047324;28;20208;-94
2022/04/06 09:36:46;;;;;;;4.60;1.40;;;18.40;53.50;;;;;;5031608;28;20254;-91
2022/04/06 09:39:12;;;;;;;4.53;1.00;;;18.40;53.10;;;;;;5047401;28;20616;-92
2022/04/06 09:41:57;;;;;;;3.30;1.30;;;18.30;53.10;;;;;;5046952;28;20269;-90
2022/04/06 09:50:11;;;;;;;3.20;1.30;;;18.20;53.20;;;;;;5046796;28;20197;-92
2022/04/06 09:52:37;;;;;;;2.73;1.27;;;18.30;53.30;;;;;;5048215;28;20556;-90
2022/04/06 09:55:08;;;;;;;3.10;1.13;;;18.20;53.30;;;;;;5047077;28;20389;-91
2022/04/06 09:57:50;;;;;;;4.00;1.20;;;18.20;53.30;;;;;;5047207;28;20273;-91
2022/04/06 10:00:21;;;;;;;3.57;1.23;;;18.10;53.30;;;;;;5045906;28;20347;-91
2022/04/06 10:03:11;;;;;;;1.87;1.20;;;18.10;53.40;;;;;;5050000;28;20237;-93
2022/04/06 10:05:38;;;;;;;2.47;1.20;;;18.10;53.40;;;;;;5041135;28;20176;-94
2022/04/06 10:08:06;;;;;;;4.07;1.40;;;18.10;53.40;;;;;;5051397;28;20362;-93
2022/04/06 10:10:34;;;;;;;4.60;1.30;;;18.00;53.50;;;;;;5050603;28;20432;-93
2022/04/06 10:13:04;;;;;;;1.87;1.10;;;18.00;53.40;;;;;;5051856;28;20173;-93
2022/04/06 10:15:31;;;;;;;3.40;1.30;;;18.00;53.40;;;;;;5050174;28;20167;-93
2022/04/06 10:17:59;;;;;;;2.00;1.10;;;18.00;53.50;;;;;;5051066;28;20270;-93
2022/04/06 10:20:31;;;;;;;3.03;1.10;;;18.00;53.50;;;;;;5052335;28;20360;-94
2022/04/06 10:23:28;;;;;;;3.37;1.13;;;18.00;53.60;;;;;;5050678;28;20181;-93
2022/04/06 10:26:06;;;;;;;3.23;1.20;;;17.90;53.50;;;;;;5049932;28;20176;-93
2022/04/06 10:28:33;;;;;;;1.07;0.90;;;17.90;53.50;;;;;;5053470;28;20182;-93
2022/04/06 10:31:11;;;;;;;2.10;1.30;;;17.90;53.50;;;;;;5050588;28;20180;-93
2022/04/06 10:33:38;;;;;;;2.97;1.13;;;17.90;53.50;;;;;;5052206;28;20279;-93
2022/04/06 10:36:26;;;;;;;3.57;1.10;;;17.90;53.50;;;;;;5053919;28;20212;-94
2022/04/06 10:39:18;;;;;;;2.87;1.23;;;17.90;53.50;;;;;;5051188;28;20572;-93
2022/04/06 10:42:30;;;;;;;2.10;1.13;;;17.90;53.50;;;;;;5049459;28;20185;-94
2022/04/06 10:44:55;;;;;;;2.03;1.13;;;17.90;53.50;;;;;;5020929;28;20177;-93
2022/04/06 10:47:22;;;;;;;1.50;1.03;;;17.90;53.50;;;;;;5051285;28;20191;-94
2022/04/06 10:50:10;;;;;;;3.20;1.20;;;17.80;53.50;;;;;;5049848;28;20186;-93
2022/04/06 10:52:36;;;;;;;1.80;1.13;;;17.80;53.50;;;;;;5051050;28;20179;-92
2022/04/06 10:55:21;;;;;;;4.00;1.27;;;17.80;53.50;;;;;;5050651;28;20178;-94
2022/04/06 10:57:57;;;;;;;1.20;0.90;;;17.80;53.50;;;;;;5050181;28;20304;-93
2022/04/06 11:00:25;;;;;;;1.80;1.10;;;17.80;53.50;;;;;;5050155;28;20643;-92
2022/04/06 11:02:53;;;;;;;1.97;1.23;;;17.80;53.50;;;;;;5045130;28;20179;-92
2022/04/06 11:05:43;;;;;;;2.43;1.20;;;17.80;53.60;;;;;;5045329;28;20235;-92
2022/04/06 11:11:32;;;;;;;3.63;1.30;;;17.80;53.60;;;;;;5048934;28;20183;-92
2022/04/06 11:13:58;;;;;;;1.57;0.87;;;17.70;53.60;;;;;;5047047;28;20176;-91
2022/04/06 11:16:45;;;;;;;1.77;1.03;;;17.70;53.60;;;;;;5045794;28;20218;-92
2022/04/06 11:19:11;;;;;;;3.20;1.13;;;17.70;53.60;;;;;;5052624;28;20384;-90
2022/04/06 11:21:55;;;;;;;2.50;1.20;;;17.70;53.60;;;;;;5049055;28;20175;-91
2022/04/06 11:24:28;;;;;;;1.13;0.93;;;17.70;53.70;;;;;;5048088;28;20235;-91
2022/04/06 11:26:54;;;;;;;2.37;1.23;;;17.70;53.90;;;;;;5049442;28;20185;-93
2022/04/06 11:29:28;;;;;;;1.90;1.00;;;17.80;54.00;;;;;;5049899;28;20186;-91
2022/04/06 11:32:04;;;;;;;2.23;1.10;;;17.70;54.00;;;;;;5047540;28;20178;-92
2022/04/06 11:34:40;;;;;;;1.83;0.93;;;17.70;54.00;;;;;;5048292;28;20278;-92
2022/04/06 11:37:09;;;;;;;3.03;0.97;;;17.70;54.00;;;;;;5051873;28;20214;-94
2022/04/06 11:39:37;;;;;;;1.40;1.00;;;17.70;54.00;;;;;;5053842;28;20177;-93
2022/04/06 11:42:05;;;;;;;1.50;1.13;;;17.70;54.00;;;;;;5052041;28;20428;-93
2022/04/06 11:44:32;;;;;;;2.10;1.10;;;17.70;54.00;;;;;;5051584;28;20173;-93
2022/04/06 11:46:58;;;;;;;3.43;1.10;;;17.70;53.90;;;;;;5052455;28;20372;-94
2022/04/06 11:49:28;;;;;;;1.43;1.23;;;17.60;53.90;;;;;;5051888;28;20183;-94
2022/04/06 11:51:54;;;;;;;2.27;1.30;;;17.70;53.90;;;;;;5053593;28;20186;-93
2022/04/06 11:54:21;;;;;;;1.70;1.00;;;17.70;53.90;;;;;;5053253;28;20179;-93
2022/04/06 11:56:51;;;;;;;2.00;1.30;;;17.70;53.90;;;;;;5051973;28;20210;-93
2022/04/06 11:59:19;;;;;;;2.10;1.13;;;17.60;53.80;;;;;;5050664;28;20175;-93
2022/04/06 12:01:46;;;;;;;2.33;1.00;;;17.70;53.90;;;;;;5050481;28;20197;-93
2022/04/06 12:04:13;;;;;;;2.43;1.30;;;17.60;53.80;;;;;;5050999;28;20208;-93
2022/04/06 12:06:39;;;;;;;2.60;1.30;;;17.60;53.80;;;;;;5051946;28;20179;-93
2022/04/06 12:09:06;;;;;;;3.47;1.37;;;17.70;53.80;;;;;;5052557;28;20183;-93
2022/04/06 12:11:35;;;;;;;2.43;1.20;;;17.70;53.80;;;;;;5051590;28;20180;-93
2022/04/06 12:14:03;;;;;;;1.70;1.10;;;17.60;53.80;;;;;;5051582;28;20446;-93
2022/04/06 12:16:29;;;;;;;3.07;1.50;;;17.70;53.90;;;;;;5050401;28;20216;-93
2022/04/06 12:18:55;;;;;;;2.17;1.47;;;17.60;53.80;;;;;;5050553;28;20447;-92
2022/04/06 12:21:23;;;;;;;2.40;1.40;;;17.60;53.80;;;;;;5051953;28;20590;-93
2022/04/06 12:23:51;;;;;;;1.60;1.50;;;17.60;53.80;;;;;;5049410;28;20534;-93
2022/04/06 12:26:21;;;;;;;3.30;1.80;;;17.60;53.80;;;;;;5050506;28;20195;-93
2022/04/06 12:28:48;;;;;;;2.03;1.37;;;17.60;53.80;;;;;;5051293;28;20188;-93
2022/04/06 12:31:14;;;;;;;2.30;1.50;;;17.60;53.90;;;;;;5051277;28;20423;-93
2022/04/06 12:33:44;;;;;;;3.80;1.70;;;17.60;54.20;;;;;;5050759;28;20198;-93
2022/04/06 12:36:17;;;;;;;2.90;1.67;;;17.60;54.10;;;;;;5050375;28;20199;-93
2022/04/06 12:39:01;;;;;;;2.07;1.50;;;17.60;54.10;;;;;;5050302;28;20429;-93
2022/04/06 12:41:31;;;;;;;1.97;1.40;;;17.60;54.10;;;;;;5051559;28;20172;-93
2022/04/06 12:43:58;;;;;;;3.13;1.70;;;17.60;54.10;;;;;;5050331;28;20184;-91
2022/04/06 12:46:40;;;;;;;2.30;1.50;;;17.60;54.10;;;;;;5048989;28;20263;-91
2022/04/06 12:49:41;;;;;;;2.47;1.40;;;17.60;54.10;;;;;;5047240;28;20278;-91
2022/04/06 12:52:26;;;;;;;3.23;1.40;;;17.60;54.10;;;;;;5050086;28;20268;-91
2022/04/06 12:55:10;;;;;;;1.83;1.60;;;17.60;54.10;;;;;;5047942;28;20261;-92
2022/04/06 12:57:37;;;;;;;2.07;1.37;;;17.60;54.10;;;;;;5049382;28;20207;-91
2022/04/06 13:00:09;;;;;;;1.53;1.30;;;17.50;54.10;;;;;;5048843;28;20419;-92
2022/04/06 13:02:48;;;;;;;1.97;1.37;;;17.50;54.10;;;;;;5051987;28;20167;-91
2022/04/06 13:05:16;;;;;;;1.50;1.30;;;17.60;54.10;;;;;;5048612;28;20188;-93